Time;durP1;ratioP1;P1;durP2;ratioP2;P2;SDS_P1;SDS_P2;PMS_P1;PMS_P2;Temp;Humidity;BMP_temperature;BMP_pressure;BME280_temperature;BME280_humidity;BME280_pressure;Samples;Min_cycle;Max_cycle;Signal;HPM_P1;HPM_P2
2023/07/29 00:01:16;;;;;;;0.20;0.20;;;;;;;21.48;74.92;100188.97;5161251;28;20040;-85
2023/07/29 00:04:11;;;;;;;0.30;0.30;;;;;;;21.51;74.49;100178.06;5161690;28;20094;-85
2023/07/29 00:07:02;;;;;;;0.20;0.20;;;;;;;21.52;74.73;100169.09;5171528;28;20089;-85
2023/07/29 00:09:53;;;;;;;0.30;0.30;;;;;;;21.53;74.47;100160.06;5161779;28;20038;-85
2023/07/29 00:12:43;;;;;;;0.30;0.30;;;;;;;21.47;74.85;100152.59;5171837;28;20041;-85
2023/07/29 00:15:34;;;;;;;0.35;0.35;;;;;;;21.47;74.55;100163.25;5154852;28;20030;-84
2023/07/29 00:18:25;;;;;;;0.25;0.25;;;;;;;21.45;74.61;100157.19;5170697;28;20037;-85
2023/07/29 00:21:16;;;;;;;0.20;0.20;;;;;;;21.44;74.68;100160.84;5164963;28;20092;-84
2023/07/29 00:24:07;;;;;;;0.20;0.20;;;;;;;21.39;74.55;100154.06;5157427;28;20632;-84
2023/07/29 00:26:57;;;;;;;0.45;0.45;;;;;;;21.42;74.33;100157.47;5154025;28;20560;-85
2023/07/29 00:29:48;;;;;;;0.30;0.30;;;;;;;21.44;74.25;100160.84;5154439;28;20034;-85
2023/07/29 00:32:39;;;;;;;0.45;0.45;;;;;;;21.41;74.16;100158.44;5160687;28;20038;-85
2023/07/29 00:35:30;;;;;;;0.22;0.22;;;;;;;21.38;74.23;100152.38;5168790;28;20076;-85
2023/07/29 00:38:20;;;;;;;0.35;0.35;;;;;;;21.42;73.95;100152.97;5176590;28;20046;-84
2023/07/29 00:41:13;;;;;;;0.30;0.30;;;;;;;21.38;74.47;100152.38;5160905;28;20042;-85
2023/07/29 00:44:04;;;;;;;0.20;0.20;;;;;;;21.37;73.78;100147.16;5166670;28;20378;-85
2023/07/29 00:46:55;;;;;;;0.38;0.38;;;;;;;21.34;74.15;100150.94;5169944;28;20107;-86
2023/07/29 00:49:46;;;;;;;0.25;0.25;;;;;;;21.32;74.55;100147.53;5176996;28;20247;-85
2023/07/29 00:52:37;;;;;;;0.30;0.30;;;;;;;21.31;74.49;100150.34;5155250;28;20026;-85
2023/07/29 00:55:28;;;;;;;1.42;0.50;;;;;;;21.35;73.81;100147.28;5160883;28;20037;-85
2023/07/29 00:58:19;;;;;;;0.20;0.20;;;;;;;21.35;74.18;100147.28;5161670;28;20407;-85
2023/07/29 01:01:10;;;;;;;0.25;0.25;;;;;;;21.61;73.07;100141.63;5167836;28;20514;-85
2023/07/29 01:04:00;;;;;;;0.40;0.40;;;;;;;21.69;72.28;100144.50;5163581;28;20042;-85
2023/07/29 01:07:03;;;;;;;0.20;0.20;;;;;;;21.67;72.26;100149.16;5185901;28;20038;-84
2023/07/29 01:10:04;;;;;;;0.30;0.30;;;;;;;21.68;72.75;100142.84;5170909;28;20034;-85
2023/07/29 01:13:13;;;;;;;0.55;0.55;;;;;;;21.68;72.19;100136.66;5178403;28;20034;-86
2023/07/29 01:16:34;;;;;;;0.28;0.28;;;;;;;21.63;72.58;100137.03;5172519;28;20061;-85
2023/07/29 01:20:05;;;;;;;0.30;0.30;;;;;;;21.64;72.50;100128.03;5163676;28;20037;-85
2023/07/29 01:22:56;;;;;;;1.88;0.40;;;;;;;21.66;72.40;100127.91;5169678;28;20030;-85
2023/07/29 01:25:46;;;;;;;0.63;0.47;;;;;;;21.62;72.88;100132.66;5154874;28;20089;-84
2023/07/29 01:28:37;;;;;;;0.40;0.40;;;;;;;21.63;72.49;100131.69;5160526;28;20665;-84
2023/07/29 01:31:36;;;;;;;0.20;0.20;;;;;;;21.59;72.75;100130.25;5154501;28;20053;-84
2023/07/29 01:34:32;;;;;;;1.08;1.05;;;;;;;21.33;73.38;100138.56;5167184;28;20034;-86
2023/07/29 01:37:27;;;;;;;0.73;0.65;;;;;;;21.23;74.33;100129.59;5168883;28;20037;-85
2023/07/29 01:40:19;;;;;;;16.67;0.88;;;;;;;21.17;74.57;100132.78;5154725;28;20033;-85
2023/07/29 01:43:10;;;;;;;0.77;0.77;;;;;;;21.16;74.31;100139.91;5174678;28;20498;-86
2023/07/29 01:46:01;;;;;;;0.45;0.45;;;;;;;21.12;74.53;100129.63;5158594;28;20387;-85
2023/07/29 01:48:52;;;;;;;0.20;0.20;;;;;;;21.08;74.91;100115.69;5166172;28;20026;-85
2023/07/29 01:51:43;;;;;;;0.40;0.40;;;;;;;21.11;74.54;100098.63;5155951;28;20033;-85
2023/07/29 01:54:34;;;;;;;0.30;0.30;;;;;;;21.09;75.07;100095.22;5151321;28;20650;-84
2023/07/29 01:57:25;;;;;;;0.25;0.25;;;;;;;21.10;74.68;100107.59;5168703;28;20053;-85
2023/07/29 02:00:16;;;;;;;0.32;0.32;;;;;;;21.10;74.75;100120.91;5167785;28;20038;-85
2023/07/29 02:03:06;;;;;;;0.10;0.10;;;;;;;21.13;74.65;100126.84;5158863;28;20157;-85
2023/07/29 02:05:57;;;;;;;0.20;0.20;;;;;;;21.17;74.93;100133.63;5156488;28;20030;-85
2023/07/29 02:08:48;;;;;;;0.20;0.20;;;;;;;21.10;75.47;100134.25;5164803;28;20474;-85
2023/07/29 02:11:39;;;;;;;0.20;0.20;;;;;;;21.17;75.11;100135.44;5164737;28;20036;-85
2023/07/29 02:14:30;;;;;;;0.65;0.65;;;;;;;21.13;75.86;100132.19;5156274;28;20038;-85
2023/07/29 02:17:21;;;;;;;0.25;0.25;;;;;;;21.04;76.43;100130.25;5167529;28;20034;-84
2023/07/29 02:20:12;;;;;;;0.65;0.65;;;;;;;21.07;76.43;100125.53;5169326;28;20101;-84
2023/07/29 02:23:02;;;;;;;0.25;0.25;;;;;;;21.07;75.93;100130.03;5170736;28;20034;-85
2023/07/29 02:25:53;;;;;;;0.30;0.30;;;;;;;21.03;76.47;100120.56;5154930;28;20109;-85
2023/07/29 02:28:44;;;;;;;0.28;0.28;;;;;;;21.05;76.45;100122.13;5195062;28;20025;-86
2023/07/29 02:31:37;;;;;;;0.20;0.20;;;;;;;21.06;75.79;100120.31;5159027;28;20026;-85
2023/07/29 02:34:27;;;;;;;0.20;0.20;;;;;;;21.06;76.47;100126.50;5159820;28;20040;-85
2023/07/29 02:37:18;;;;;;;0.30;0.30;;;;;;;20.87;80.86;100115.59;5166670;28;20061;-86
2023/07/29 02:40:10;;;;;;;0.40;0.40;;;;;;;20.83;80.76;100124.81;5172062;28;20050;-85
2023/07/29 02:43:01;;;;;;;0.25;0.25;;;;;;;20.93;79.75;100125.78;5154195;28;20064;-85
2023/07/29 02:45:51;;;;;;;0.45;0.45;;;;;;;20.85;81.54;100123.72;5168616;28;20136;-85
2023/07/29 02:48:43;;;;;;;0.30;0.30;;;;;;;20.68;83.81;100113.53;5163027;28;20026;-86
2023/07/29 02:51:34;;;;;;;0.30;0.30;;;;;;;20.82;80.46;100117.78;5161462;28;20083;-86
2023/07/29 02:54:25;;;;;;;0.30;0.30;;;;;;;20.69;82.41;100115.22;5151740;28;20433;-86
2023/07/29 02:57:17;;;;;;;0.20;0.20;;;;;;;20.57;84.49;100109.91;5174244;28;20046;-85
2023/07/29 03:00:08;;;;;;;0.20;0.20;;;;;;;20.67;83.95;100103.84;5160954;28;20034;-86
2023/07/29 03:02:59;;;;;;;6.93;1.08;;;;;;;20.71;80.86;100098.13;5167496;28;20038;-86
2023/07/29 03:05:58;;;;;;;0.30;0.30;;;;;;;20.65;83.70;100103.13;5173546;28;20042;-86
2023/07/29 03:08:48;;;;;;;0.20;0.20;;;;;;;20.75;80.89;100112.09;5156962;28;20026;-86
2023/07/29 03:11:39;;;;;;;0.20;0.20;;;;;;;20.72;82.89;100105.16;5173253;28;20113;-83
2023/07/29 03:14:31;;;;;;;0.30;0.30;;;;;;;20.73;82.35;100109.56;5174854;28;20034;-82
2023/07/29 03:17:22;;;;;;;0.40;0.40;;;;;;;20.74;81.59;100100.59;5171901;28;20089;-83
2023/07/29 03:20:12;;;;;;;0.25;0.25;;;;;;;20.80;80.27;100090.41;5175671;28;20065;-83
2023/07/29 03:23:03;;;;;;;0.20;0.20;;;;;;;20.86;79.42;100087.28;5171957;28;20030;-83
2023/07/29 03:25:59;;;;;;;0.20;0.20;;;;;;;20.81;80.47;100084.09;5168229;28;20959;-82
2023/07/29 03:28:49;;;;;;;0.57;0.57;;;;;;;20.87;79.72;100097.81;5170903;28;20052;-83
2023/07/29 03:31:40;;;;;;;0.32;0.32;;;;;;;20.80;82.70;100098.41;5164233;28;20031;-83
2023/07/29 03:34:31;;;;;;;0.40;0.40;;;;;;;20.69;84.38;100105.44;5170619;28;20091;-84
2023/07/29 03:37:22;;;;;;;0.20;0.20;;;;;;;20.78;81.61;100116.38;5169300;28;20030;-84
2023/07/29 03:40:13;;;;;;;0.30;0.30;;;;;;;20.54;85.00;100109.28;5170320;28;20061;-83
2023/07/29 03:43:04;;;;;;;0.32;0.32;;;;;;;20.43;85.07;100108.34;5170237;28;20034;-85
2023/07/29 03:45:55;;;;;;;0.55;0.55;;;;;;;20.65;83.21;100111.13;5161539;28;20046;-85
2023/07/29 03:48:46;;;;;;;0.57;0.57;;;;;;;20.39;85.47;100111.34;5175913;28;20034;-84
2023/07/29 03:51:39;;;;;;;0.32;0.32;;;;;;;20.30;86.36;100102.25;5178147;28;20034;-83
2023/07/29 03:54:30;;;;;;;0.75;0.75;;;;;;;20.42;84.85;100100.44;5156975;28;20046;-84
2023/07/29 03:57:21;;;;;;;0.50;0.50;;;;;;;20.46;84.19;100104.56;5170154;28;20058;-83
2023/07/29 04:00:12;;;;;;;0.20;0.20;;;;;;;20.51;82.65;100104.22;5174733;28;20302;-83
2023/07/29 04:03:03;;;;;;;0.68;0.68;;;;;;;20.57;82.79;100103.72;5157686;28;20026;-83
2023/07/29 04:05:54;;;;;;;0.70;0.70;;;;;;;20.62;81.17;100112.19;5170348;28;20038;-82
2023/07/29 04:08:44;;;;;;;0.40;0.40;;;;;;;20.64;81.22;100120.91;5183287;28;20030;-84
2023/07/29 04:11:35;;;;;;;0.20;0.20;;;;;;;20.45;83.06;100118.88;5159243;28;20537;-85
2023/07/29 04:14:26;;;;;;;0.40;0.40;;;;;;;20.40;83.25;100113.06;5158408;28;20049;-84
2023/07/29 04:17:17;;;;;;;1.83;0.65;;;;;;;20.32;84.32;100134.97;5169661;28;20037;-83
2023/07/29 04:20:08;;;;;;;0.40;0.40;;;;;;;20.47;82.24;100134.72;5194635;28;20064;-81
2023/07/29 04:22:59;;;;;;;0.30;0.30;;;;;;;20.53;81.01;100139.59;5182002;28;20041;-82
2023/07/29 04:25:50;;;;;;;0.20;0.20;;;;;;;20.47;81.05;100146.25;5195213;28;20054;-82
2023/07/29 04:28:42;;;;;;;0.30;0.30;;;;;;;20.35;82.91;100156.03;5198665;28;20013;-84
2023/07/29 04:31:32;;;;;;;0.75;0.50;;;;;;;20.44;81.14;100157.13;5189856;28;20021;-82
2023/07/29 04:34:23;;;;;;;0.30;0.30;;;;;;;20.39;81.61;100159.31;5189790;28;20033;-81
2023/07/29 04:37:14;;;;;;;0.20;0.20;;;;;;;20.42;80.57;100154.59;5190898;28;20061;-85
2023/07/29 04:40:06;;;;;;;0.30;0.30;;;;;;;20.48;80.02;100158.59;5172099;28;20038;-83
2023/07/29 04:42:56;;;;;;;0.30;0.30;;;;;;;20.49;80.33;100148.78;5177033;28;20026;-83
2023/07/29 04:45:48;;;;;;;0.40;0.40;;;;;;;20.55;79.08;100132.31;5181187;28;20441;-85
2023/07/29 04:48:38;;;;;;;0.95;0.95;;;;;;;20.21;83.00;100135.78;5166677;28;20502;-84
2023/07/29 04:51:31;;;;;;;0.35;0.35;;;;;;;20.44;79.78;100131.34;5169323;28;20026;-83
2023/07/29 04:54:22;;;;;;;0.37;0.37;;;;;;;20.53;80.85;100129.75;5171508;28;20133;-84
2023/07/29 04:57:13;;;;;;;0.40;0.32;;;;;;;20.52;79.81;100121.91;5171678;28;20339;-84
2023/07/29 05:00:04;;;;;;;0.47;0.47;;;;;;;20.51;79.92;100120.19;5155786;28;20041;-85
2023/07/29 05:02:55;;;;;;;0.40;0.40;;;;;;;20.29;83.42;100129.84;5158082;28;20557;-85
2023/07/29 05:05:45;;;;;;;0.32;0.32;;;;;;;20.40;82.20;100139.69;5156205;28;20568;-85
2023/07/29 05:08:36;;;;;;;3.72;0.50;;;;;;;20.48;80.39;100139.09;5169941;28;20030;-84
2023/07/29 05:11:27;;;;;;;0.57;0.50;;;;;;;20.51;79.80;100142.34;5166559;28;20041;-83
2023/07/29 05:14:18;;;;;;;0.98;0.40;;;;;;;20.53;80.65;100160.91;5159313;28;20034;-83
2023/07/29 05:17:08;;;;;;;0.55;0.55;;;;;;;20.60;79.18;100159.47;5175204;28;20053;-85
2023/07/29 05:19:59;;;;;;;0.70;0.65;;;;;;;20.54;79.94;100162.56;5173978;28;20042;-84
2023/07/29 05:22:50;;;;;;;0.88;0.88;;;;;;;20.52;80.34;100170.69;5166296;28;20709;-83
2023/07/29 05:25:41;;;;;;;0.75;0.73;;;;;;;20.49;80.18;100175.44;5167051;28;20033;-83
2023/07/29 05:28:31;;;;;;;0.20;0.20;;;;;;;20.35;81.26;100160.50;5161321;28;20625;-83
2023/07/29 05:31:22;;;;;;;0.20;0.20;;;;;;;20.51;79.71;100146.84;5164143;28;20061;-83
2023/07/29 05:34:13;;;;;;;0.50;0.50;;;;;;;20.56;79.04;100150.00;5172007;28;20046;-83
2023/07/29 05:37:04;;;;;;;0.40;0.40;;;;;;;20.55;79.08;100165.16;5155279;28;20387;-84
2023/07/29 05:39:55;;;;;;;0.25;0.25;;;;;;;20.45;79.57;100173.00;5170400;28;20030;-84
2023/07/29 05:42:46;;;;;;;0.30;0.30;;;;;;;20.42;79.65;100185.69;5164500;28;20430;-84
2023/07/29 05:45:36;;;;;;;0.25;0.25;;;;;;;20.43;79.34;100185.59;5195424;28;20068;-83
2023/07/29 05:48:27;;;;;;;0.20;0.20;;;;;;;20.44;79.45;100195.31;5169461;28;20120;-83
2023/07/29 05:51:19;;;;;;;0.52;0.43;;;;;;;20.48;79.67;100209.22;5171997;28;20499;-84
2023/07/29 05:54:09;;;;;;;0.70;0.70;;;;;;;20.48;79.43;100203.91;5166821;28;20053;-83
2023/07/29 05:57:00;;;;;;;0.57;0.57;;;;;;;20.34;80.97;100204.97;5166563;28;20022;-84
2023/07/29 05:59:51;;;;;;;2.60;1.20;;;;;;;20.28;82.04;100213.44;5154689;28;20506;-83
2023/07/29 06:02:42;;;;;;;0.20;0.20;;;;;;;20.34;81.17;100210.28;5153964;28;20126;-84
2023/07/29 06:05:32;;;;;;;0.22;0.22;;;;;;;20.34;80.85;100215.63;5181295;28;20045;-84
2023/07/29 06:08:23;;;;;;;0.20;0.20;;;;;;;19.93;84.32;100211.59;5152604;28;20026;-83
2023/07/29 06:11:14;;;;;;;0.40;0.40;;;;;;;20.06;83.29;100222.19;5167380;28;20053;-84
2023/07/29 06:14:05;;;;;;;0.70;0.70;;;;;;;20.09;82.83;100230.78;5169824;28;20034;-84
2023/07/29 06:16:55;;;;;;;1.35;0.75;;;;;;;20.20;81.67;100226.47;5173630;28;20021;-84
2023/07/29 06:19:46;;;;;;;0.20;0.20;;;;;;;20.05;82.81;100228.47;5170817;28;20092;-83
2023/07/29 06:22:37;;;;;;;0.47;0.47;;;;;;;19.97;83.30;100232.56;5164827;28;20025;-84
2023/07/29 06:25:28;;;;;;;0.40;0.40;;;;;;;19.92;82.78;100234.69;5166642;28;20033;-84
2023/07/29 06:28:18;;;;;;;0.20;0.20;;;;;;;20.00;82.55;100238.63;5154202;28;20502;-84
2023/07/29 06:31:09;;;;;;;0.20;0.20;;;;;;;20.04;81.70;100230.25;5165556;28;20039;-84
2023/07/29 06:34:00;;;;;;;0.52;0.43;;;;;;;19.99;81.66;100221.78;5166699;28;20142;-84
2023/07/29 06:36:51;;;;;;;0.32;0.32;;;;;;;20.11;81.35;100223.53;5169604;28;20071;-83
2023/07/29 06:39:42;;;;;;;0.25;0.25;;;;;;;20.13;81.09;100223.41;5169701;28;20513;-84
2023/07/29 06:42:33;;;;;;;0.30;0.30;;;;;;;20.11;80.55;100234.19;5163416;28;20050;-84
2023/07/29 06:45:24;;;;;;;0.47;0.47;;;;;;;20.06;80.86;100228.34;5170797;28;20409;-83
2023/07/29 06:48:14;;;;;;;1.35;1.00;;;;;;;20.05;81.31;100245.28;5170271;28;20042;-84
2023/07/29 06:51:05;;;;;;;0.35;0.35;;;;;;;19.97;80.71;100245.88;5173046;28;20502;-84
2023/07/29 06:53:56;;;;;;;0.47;0.30;;;;;;;19.97;81.09;100239.69;5156450;28;20068;-83
2023/07/29 06:56:47;;;;;;;0.22;0.22;;;;;;;19.79;80.81;100232.06;5159155;28;20034;-84
2023/07/29 06:59:40;;;;;;;0.30;0.30;;;;;;;20.01;80.07;100219.88;5165668;28;20069;-83
2023/07/29 07:02:31;;;;;;;0.30;0.30;;;;;;;20.09;79.52;100222.81;5164930;28;20030;-84
2023/07/29 07:05:21;;;;;;;0.30;0.30;;;;;;;20.07;79.38;100219.41;5164256;28;20040;-83
2023/07/29 07:08:12;;;;;;;0.20;0.20;;;;;;;20.11;79.50;100207.56;5173033;28;20135;-83
2023/07/29 07:11:03;;;;;;;0.20;0.20;;;;;;;20.21;78.71;100217.50;5149925;28;20062;-84
2023/07/29 07:13:54;;;;;;;0.85;0.82;;;;;;;20.29;78.53;100223.09;5159088;28;20088;-84
2023/07/29 07:16:44;;;;;;;0.40;0.40;;;;;;;20.28;78.58;100232.06;5165982;28;20033;-82
2023/07/29 07:19:35;;;;;;;0.40;0.40;;;;;;;20.32;78.66;100230.84;5155543;28;20532;-84
2023/07/29 07:22:26;;;;;;;1.02;0.82;;;;;;;20.07;79.14;100240.69;5158044;28;20038;-84
2023/07/29 07:25:17;;;;;;;0.20;0.20;;;;;;;20.06;79.56;100233.66;5173052;28;20430;-83
2023/07/29 07:28:08;;;;;;;0.30;0.30;;;;;;;20.10;79.58;100228.97;5179168;28;20077;-84
2023/07/29 07:30:59;;;;;;;0.30;0.30;;;;;;;20.05;79.73;100234.63;5167611;28;20062;-82
2023/07/29 07:33:50;;;;;;;0.25;0.25;;;;;;;19.81;79.01;100250.59;5169983;28;20029;-83
2023/07/29 07:36:50;;;;;;;0.20;0.20;;;;;;;19.81;79.29;100256.75;5168775;28;20018;-84
2023/07/29 07:39:41;;;;;;;0.25;0.25;;;;;;;19.68;77.65;100261.28;5167683;28;20026;-83
2023/07/29 07:42:32;;;;;;;1.60;0.95;;;;;;;19.74;77.99;100263.50;5157846;28;20133;-84
2023/07/29 07:45:22;;;;;;;0.20;0.20;;;;;;;19.81;77.64;100267.41;5174297;28;20121;-83
2023/07/29 07:48:13;;;;;;;0.20;0.20;;;;;;;19.94;77.60;100259.41;5174429;28;20617;-83
2023/07/29 07:51:13;;;;;;;0.20;0.20;;;;;;;19.80;77.79;100260.38;5187397;28;20050;-83
2023/07/29 07:54:04;;;;;;;0.20;0.20;;;;;;;20.00;77.20;100257.25;5183266;28;20031;-83
2023/07/29 07:56:55;;;;;;;0.20;0.20;;;;;;;19.85;77.09;100259.25;5158873;28;20038;-83
2023/07/29 07:59:46;;;;;;;0.98;0.50;;;;;;;19.87;76.45;100255.50;5168175;28;20038;-84
2023/07/29 08:02:37;;;;;;;0.30;0.30;;;;;;;19.72;75.64;100257.44;5169350;28;20560;-83
2023/07/29 08:05:27;;;;;;;2.60;0.30;;;;;;;19.78;75.49;100262.31;5159734;28;20096;-83
2023/07/29 08:08:19;;;;;;;0.25;0.25;;;;;;;19.90;75.34;100246.44;5168376;28;20026;-84
2023/07/29 08:11:09;;;;;;;5.32;1.48;;;;;;;19.89;73.92;100247.38;5155007;28;20046;-83
2023/07/29 08:14:00;;;;;;;0.38;0.38;;;;;;;20.11;74.12;100250.16;5153423;28;20037;-84
2023/07/29 08:16:51;;;;;;;0.32;0.32;;;;;;;19.99;74.94;100243.09;5168450;28;20049;-83
2023/07/29 08:19:42;;;;;;;0.20;0.20;;;;;;;19.88;72.12;100243.03;5171945;28;20113;-84
2023/07/29 08:22:33;;;;;;;0.20;0.20;;;;;;;20.02;71.86;100242.88;5175284;28;20033;-83
2023/07/29 08:25:24;;;;;;;0.32;0.32;;;;;;;20.08;73.18;100247.72;5167865;28;20034;-84
2023/07/29 08:28:14;;;;;;;0.50;0.50;;;;;;;20.08;72.85;100247.72;5170960;28;20045;-84
2023/07/29 08:31:06;;;;;;;0.20;0.20;;;;;;;19.98;72.38;100252.03;5173837;28;20031;-84
2023/07/29 08:33:57;;;;;;;0.40;0.40;;;;;;;19.99;71.67;100243.09;5168264;28;20026;-82
2023/07/29 08:36:47;;;;;;;2.00;0.35;;;;;;;19.99;71.37;100248.41;5173090;28;20286;-84
2023/07/29 08:39:38;;;;;;;0.20;0.20;;;;;;;20.04;71.73;100242.75;5172595;28;20112;-83
2023/07/29 08:42:31;;;;;;;1.27;0.88;;;;;;;20.06;70.92;100252.31;5170696;28;20022;-83
2023/07/29 08:45:24;;;;;;;0.28;0.28;;;;;;;20.22;71.34;100248.50;5176283;28;20384;-83
2023/07/29 08:48:23;;;;;;;0.20;0.20;;;;;;;20.21;70.63;100252.13;5154906;28;20038;-83
2023/07/29 08:51:15;;;;;;;0.63;0.63;;;;;;;20.18;70.84;100252.38;5171268;28;20402;-83
2023/07/29 08:54:06;;;;;;;0.60;0.52;;;;;;;20.18;70.11;100250.53;5168793;28;20104;-83
2023/07/29 08:56:58;;;;;;;0.30;0.30;;;;;;;20.20;70.63;100256.63;5167154;28;20021;-84
2023/07/29 08:59:49;;;;;;;4.18;1.00;;;;;;;20.29;70.70;100266.56;5168622;28;20172;-84
2023/07/29 09:02:39;;;;;;;0.20;0.20;;;;;;;20.30;71.00;100267.41;5159791;28;20029;-84
2023/07/29 09:05:32;;;;;;;0.20;0.20;;;;;;;20.33;71.40;100267.19;5162015;28;20042;-84
2023/07/29 09:08:25;;;;;;;0.40;0.40;;;;;;;20.35;71.45;100267.94;5160448;28;20077;-83
2023/07/29 09:11:17;;;;;;;0.20;0.20;;;;;;;20.39;69.93;100271.22;5167376;28;20050;-84
2023/07/29 09:14:08;;;;;;;0.43;0.43;;;;;;;20.50;71.21;100273.91;5182844;28;20046;-84
2023/07/29 09:16:59;;;;;;;0.30;0.30;;;;;;;20.49;70.21;100266.88;5154510;28;20085;-84
2023/07/29 09:19:51;;;;;;;0.65;0.40;;;;;;;20.57;70.33;100256.50;5154314;28;20030;-84
2023/07/29 09:22:43;;;;;;;0.50;0.40;;;;;;;20.57;70.14;100252.97;5158895;28;20088;-84
2023/07/29 09:25:34;;;;;;;0.20;0.20;;;;;;;20.63;70.14;100268.47;5172065;28;20065;-83
2023/07/29 09:28:25;;;;;;;0.55;0.55;;;;;;;20.70;70.38;100269.69;5196480;28;20282;-83
2023/07/29 09:31:21;;;;;;;0.20;0.20;;;;;;;20.65;69.78;100263.88;5186648;28;20061;-82
2023/07/29 09:34:15;;;;;;;0.20;0.20;;;;;;;20.79;70.37;100267.31;5185197;28;20056;-83
2023/07/29 09:37:06;;;;;;;0.20;0.20;;;;;;;20.75;69.79;100267.56;5175693;28;20242;-84
2023/07/29 09:39:56;;;;;;;0.20;0.20;;;;;;;20.78;69.95;100268.31;5171364;28;20034;-83
2023/07/29 09:42:50;;;;;;;0.20;0.20;;;;;;;20.92;70.29;100273.41;5168279;28;20029;-84
2023/07/29 09:45:40;;;;;;;0.30;0.30;;;;;;;21.06;69.83;100267.84;5171218;28;20046;-84
2023/07/29 09:48:35;;;;;;;0.40;0.40;;;;;;;21.02;68.60;100263.75;5180861;28;20033;-84
2023/07/29 09:51:26;;;;;;;0.20;0.20;;;;;;;21.17;68.84;100266.16;5171133;28;20046;-84
2023/07/29 09:54:17;;;;;;;1.50;1.30;;;;;;;21.14;67.26;100269.06;5172293;28;20096;-83
2023/07/29 09:57:08;;;;;;;0.35;0.35;;;;;;;21.11;66.80;100264.81;5171834;28;20058;-83
2023/07/29 09:59:59;;;;;;;0.28;0.28;;;;;;;21.30;67.17;100260.69;5170276;28;20030;-84
2023/07/29 10:02:50;;;;;;;7.60;0.50;;;;;;;21.36;67.01;100255.69;5165482;28;20096;-83
2023/07/29 10:05:41;;;;;;;0.55;0.40;;;;;;;21.17;66.44;100266.16;5154120;28;20050;-83
2023/07/29 10:08:38;;;;;;;0.25;0.25;;;;;;;21.33;67.06;100261.31;5184351;28;20091;-84
2023/07/29 10:11:30;;;;;;;0.38;0.38;;;;;;;21.15;66.08;100268.09;5170986;28;20062;-84
2023/07/29 10:14:23;;;;;;;0.20;0.20;;;;;;;21.15;66.10;100268.09;5165286;28;20536;-84
2023/07/29 10:17:15;;;;;;;0.20;0.20;;;;;;;21.19;66.61;100272.22;5173461;28;20472;-84
2023/07/29 10:20:08;;;;;;;5.00;1.38;;;;;;;21.32;65.73;100272.94;5156348;28;20512;-83
2023/07/29 10:23:00;;;;;;;0.40;0.40;;;;;;;21.38;65.83;100276.94;5166079;28;20474;-84
2023/07/29 10:26:03;;;;;;;0.98;0.57;;;;;;;21.28;65.95;100271.47;5158378;28;20026;-83
2023/07/29 10:29:00;;;;;;;0.20;0.20;;;;;;;21.34;66.58;100276.34;5178807;28;20045;-84
2023/07/29 10:31:56;;;;;;;0.30;0.30;;;;;;;21.34;67.42;100267.47;5160481;28;20101;-84
2023/07/29 10:34:47;;;;;;;0.20;0.20;;;;;;;21.43;67.45;100271.25;5170325;28;20045;-84
2023/07/29 10:37:38;;;;;;;0.30;0.30;;;;;;;21.56;67.78;100271.94;5173706;28;20561;-84
2023/07/29 10:41:08;;;;;;;0.20;0.20;;;;;;;21.62;67.28;100271.47;5168502;28;20446;-84
2023/07/29 10:43:58;;;;;;;0.22;0.22;;;;;;;21.68;65.85;100260.31;5091909;29;20087;-84
2023/07/29 10:46:49;;;;;;;0.40;0.40;;;;;;;21.70;64.92;100257.50;5094472;29;20043;-84
2023/07/29 10:49:41;;;;;;;0.50;0.50;;;;;;;21.81;66.09;100256.63;5162971;28;20061;-84
2023/07/29 10:52:34;;;;;;;0.32;0.32;;;;;;;21.95;65.75;100255.50;5167597;28;20026;-84
2023/07/29 10:55:32;;;;;;;0.28;0.28;;;;;;;21.93;65.22;100263.66;5154358;28;20038;-84
2023/07/29 10:58:23;;;;;;;0.20;0.20;;;;;;;21.99;64.77;100267.59;5168841;28;20045;-84
2023/07/29 11:01:27;;;;;;;0.40;0.40;;;;;;;21.82;63.70;100261.00;5166285;28;20054;-84
2023/07/29 11:04:24;;;;;;;0.20;0.20;;;;;;;21.82;63.39;100263.66;5167211;28;20049;-84
2023/07/29 11:07:14;;;;;;;0.20;0.20;;;;;;;22.05;64.50;100255.56;5160033;28;20061;-84
2023/07/29 11:10:06;;;;;;;0.68;0.68;;;;;;;22.02;64.06;100257.50;5172613;28;20034;-84
2023/07/29 11:12:57;;;;;;;0.35;0.35;;;;;;;21.97;64.15;100270.41;5154461;28;20069;-84
2023/07/29 11:15:50;;;;;;;0.20;0.20;;;;;;;22.20;64.20;100254.28;5156732;28;20037;-84
2023/07/29 11:18:44;;;;;;;0.22;0.22;;;;;;;22.38;63.85;100261.75;5174065;28;20025;-84
2023/07/29 11:21:34;;;;;;;0.20;0.20;;;;;;;22.54;63.01;100246.13;5170544;28;20061;-84
2023/07/29 11:24:25;;;;;;;2.70;0.52;;;;;;;22.48;62.79;100252.84;5169014;28;20057;-84
2023/07/29 11:27:16;;;;;;;0.20;0.20;;;;;;;22.50;63.38;100260.75;5171922;28;20124;-85
2023/07/29 11:30:09;;;;;;;0.40;0.40;;;;;;;22.61;64.47;100252.63;5186954;28;20042;-85
2023/07/29 11:33:00;;;;;;;0.20;0.20;;;;;;;22.64;62.72;100255.06;5161070;28;20055;-85
2023/07/29 11:35:52;;;;;;;0.20;0.20;;;;;;;22.57;61.83;100251.22;5175862;28;20470;-84
2023/07/29 11:38:44;;;;;;;0.30;0.30;;;;;;;22.62;61.92;100254.34;5183242;28;20026;-84
2023/07/29 11:41:34;;;;;;;0.38;0.38;;;;;;;22.62;62.01;100257.00;5170536;28;20034;-84
2023/07/29 11:44:25;;;;;;;0.20;0.20;;;;;;;22.74;63.09;100251.59;5177761;28;20045;-84
2023/07/29 11:47:16;;;;;;;0.28;0.28;;;;;;;22.64;61.30;100240.84;5177271;28;20317;-84
2023/07/29 11:50:09;;;;;;;1.02;0.43;;;;;;;22.73;61.54;100241.88;5185486;28;20267;-84
2023/07/29 11:53:00;;;;;;;;;;;;;;;22.78;61.58;100240.50;5162971;28;20039;-84
2023/07/29 11:55:52;;;;;;;0.30;0.30;;;;;;;22.98;61.88;100237.06;5154606;28;20102;-85
2023/07/29 11:58:43;;;;;;;0.10;0.10;;;;;;;22.81;60.56;100239.41;5159834;28;20478;-84
2023/07/29 12:01:34;;;;;;;0.20;0.20;;;;;;;22.59;60.59;100238.56;5179000;28;20040;-83
2023/07/29 12:04:25;;;;;;;0.20;0.20;;;;;;;22.71;61.07;100238.47;5183404;28;20029;-84
2023/07/29 12:07:17;;;;;;;0.30;0.30;;;;;;;22.73;61.14;100228.50;5188948;28;20057;-83
2023/07/29 12:10:09;;;;;;;0.20;0.20;;;;;;;;;;5181614;28;20190;-81
2023/07/29 12:13:02;;;;;;;0.65;0.65;;;;;;;22.98;60.77;100210.31;5175199;28;20029;-84
2023/07/29 12:16:00;;;;;;;;;;;;;;;23.19;60.29;100213.81;5167462;28;20582;-84
2023/07/29 12:18:51;;;;;;;0.10;0.10;;;;;;;23.33;60.62;100217.94;5157203;28;20448;-83
2023/07/29 12:21:42;;;;;;;0.20;0.20;;;;;;;23.43;58.73;100212.59;5160488;28;20066;-84
2023/07/29 12:24:36;;;;;;;0.55;0.55;;;;;;;23.60;58.56;100211.09;5164760;28;20030;-85
2023/07/29 12:27:27;;;;;;;0.30;0.30;;;;;;;23.65;60.04;100205.31;5164260;28;20454;-84
2023/07/29 12:30:22;;;;;;;0.28;0.28;;;;;;;23.65;59.24;100210.69;5175353;28;20033;-83
2023/07/29 12:33:36;;;;;;;0.10;0.10;;;;;;;23.69;58.92;100199.56;5174550;28;20052;-83
2023/07/29 12:36:46;;;;;;;0.25;0.25;;;;;;;23.71;59.94;100207.44;5177811;28;20062;-83
2023/07/29 12:39:43;;;;;;;0.20;0.20;;;;;;;23.60;58.82;100221.81;5171724;28;20540;-84
2023/07/29 12:42:34;;;;;;;0.25;0.25;;;;;;;23.66;60.31;100205.16;5173316;28;20504;-85
2023/07/29 12:45:28;;;;;;;1.25;0.50;;;;;;;23.82;59.93;100199.28;5170999;28;20046;-83
2023/07/29 12:48:19;;;;;;;0.43;0.43;;;;;;;23.83;60.17;100195.63;5161412;28;20034;-84
2023/07/29 12:51:10;;;;;;;1.33;1.17;;;;;;;23.69;60.19;100198.69;5159297;28;20042;-83
2023/07/29 12:54:01;;;;;;;0.30;0.30;;;;;;;23.61;60.05;100198.53;5174935;28;20039;-83
2023/07/29 12:56:52;;;;;;;0.40;0.40;;;;;;;23.75;60.88;100198.16;5169965;28;20018;-84
2023/07/29 12:59:42;;;;;;;0.47;0.47;;;;;;;23.83;62.08;100200.97;5168652;28;20034;-83
2023/07/29 13:02:33;;;;;;;0.10;0.10;;;;;;;23.76;61.52;100212.38;5154768;28;20627;-84
2023/07/29 13:05:24;;;;;;;4.30;0.90;;;;;;;23.50;61.28;100215.56;5171443;28;20399;-84
2023/07/29 13:08:15;;;;;;;0.20;0.20;;;;;;;23.53;63.31;100223.34;5169205;28;20037;-84
2023/07/29 13:11:05;;;;;;;0.35;0.35;;;;;;;23.35;63.47;100229.34;5172297;28;20034;-84
2023/07/29 13:13:56;;;;;;;0.30;0.30;;;;;;;23.11;63.52;100237.69;5166777;28;20768;-84
2023/07/29 13:16:47;;;;;;;0.20;0.20;;;;;;;23.32;63.81;100244.84;5166814;28;20121;-84
2023/07/29 13:19:38;;;;;;;0.20;0.20;;;;;;;23.29;64.62;100240.63;5153797;28;20135;-84
2023/07/29 13:22:28;;;;;;;0.75;0.73;;;;;;;23.01;65.00;100237.66;5167254;28;20042;-83